Марьино

Карта отелей и гостиниц, располагающихся рядом с аэропортом Марьино :

Марьино Марий Эл 56° 33' 30.24" N, 46° 0' 29.7612" E
Код аэродрома ИКАО
ZA7Z
Код аэродрома RU
ЗА7З
Координаты
N56.55840° E046.00827°
Превышение над уровнем моря
87
Основная полоса
08/26
Курс магнитный
076/256
Длина основной ВПП
600
Ширина основной ВПП
30
Покрытие основной ВПП
Нетвёрдое (грунт)
Освещение ВПП
Нет
Тип: 
Аэродром
Класс аэродрома: 
Принадлежность: 
ГА
Статус: 
Недействующий
Сайт: 
E-mail аэродрома: 
Страна: 
Россия
Регион: 
Марий Эл
Город: 
Дополнительная информация: 

Найти трансфер

С помощью этой формы Вы можете найти трансфер из аэропорта Марьино в город, аэропорт или вокзал:

Карта места

Javascript is required to view this map.

Погода в аэропортах:

Авиационная погода в Нижнекамске

Регион: 
Погода METAR: 
UWKE 271500Z 04006MPS 4800 -SN OVC028 M12/M13 Q0998 R03/421040 NOSIG RMK QFE732/0976
Время наблюдения
2021-02-27T15:00:00Z
Температура C
-12.0
Точка росы
-13.0
Направление ветра
40
Скорость ветра (узлы)
12
Метео видимость
2.98
Явления погоды
-SN
Условия полета
IFR
Аэропорт подробнее: 

Авиационная погода в Гостомеле

Регион: 
Погода METAR: 
UKKM 271500Z AUTO 35002MPS 6000 -RA BKN008/// 03/02 Q1017
Время наблюдения
2021-02-27T15:00:00Z
Температура C
3.0
Точка росы
2.0
Направление ветра
350
Скорость ветра (узлы)
4
Метео видимость
3.73
Явления погоды
-RA
Условия полета
IFR
Аэропорт подробнее: 

Авиационная погода в Костанае

Регион: 
Погода METAR: 
UAUU 271500Z 13008MPS 2300 SN BLSN OVC035 M14/M16 Q1014 R15/420251 NOSIG RMK QFE744/0993
Время наблюдения
2021-02-27T15:00:00Z
Температура C
-14.0
Точка росы
-16.0
Направление ветра
130
Скорость ветра (узлы)
16
Метео видимость
1.43
Явления погоды
SN BLSN
Условия полета
IFR
Аэропорт подробнее: 

Авиационная погода в Атырау

Регион: 
Погода METAR: 
UATG 271500Z 23007MPS 0700 R14/1600N FG VV001 01/01 Q1009 R14/29//60 NOSIG RMK QBB050 QFE759/1012
Время наблюдения
2021-02-27T15:00:00Z
Температура C
1.0
Точка росы
1.0
Направление ветра
230
Скорость ветра (узлы)
14
Метео видимость
0.43
Явления погоды
FG
Условия полета
LIFR